Time;durP1;ratioP1;P1;durP2;ratioP2;P2;SDS_P1;SDS_P2;PMS_P1;PMS_P2;Temp;Humidity;BMP_temperature;BMP_pressure;BME280_temperature;BME280_humidity;BME280_pressure;Samples;Min_cycle;Max_cycle;Signal;HPM_P1;HPM_P2
2022/05/10 00:02:16;;;;;;;;;;;;;;;8.27;94.95;100564.77;1671086;85;20104;-70
2022/05/10 00:04:46;;;;;;;;;;;;;;;8.22;94.87;100558.48;1671118;85;20107;-71
2022/05/10 00:07:15;;;;;;;;;;;;;;;8.18;94.48;100561.12;1670654;85;20134;-71
2022/05/10 00:09:41;;;;;;;;;;;;;;;8.15;94.50;100560.05;1671055;86;20388;-72
2022/05/10 00:12:10;;;;;;;;;;;;;;;8.11;95.16;100563.53;1671289;86;20180;-71
2022/05/10 00:14:38;;;;;;;;;;;;;;;8.08;95.26;100565.66;1670960;86;20448;-72
2022/05/10 00:17:05;;;;;;;;;;;;;;;8.06;95.27;100559.56;1671376;86;20178;-72
2022/05/10 00:19:33;;;;;;;;;;;;;;;8.03;95.43;100564.72;1670936;86;20114;-72
2022/05/10 00:21:59;;;;;;;;;;;;;;;7.99;95.84;100560.12;1671236;85;20112;-72
2022/05/10 00:24:26;;;;;;;;;;;;;;;7.96;95.74;100559.55;1670955;86;20104;-72
2022/05/10 00:26:55;;;;;;;;;;;;;;;7.92;96.20;100568.41;1671138;85;20139;-71
2022/05/10 00:29:23;;;;;;;;;;;;;;;7.87;96.52;100564.45;1670983;86;20115;-71
2022/05/10 00:31:51;;;;;;;;;;;;;;;7.83;96.62;100561.69;1671002;85;20132;-72
2022/05/10 00:34:18;;;;;;;;;;;;;;;7.79;97.25;100562.44;1669444;86;20147;-71
2022/05/10 00:36:46;;;;;;;;;;;;;;;7.75;97.59;100557.83;1663858;86;20111;-73
2022/05/10 00:39:13;;;;;;;;;;;;;;;7.72;98.05;100560.82;1664064;86;20112;-72
2022/05/10 00:41:46;;;;;;;;;;;;;;;7.69;98.24;100564.28;1663856;85;20432;-71
2022/05/10 00:44:19;;;;;;;;;;;;;;;7.66;98.04;100563.22;1666998;85;20115;-72
2022/05/10 00:46:48;;;;;;;;;;;;;;;7.63;98.47;100562.14;1712385;83;20130;-71
2022/05/10 00:49:21;;;;;;;;;;;;;;;7.58;98.21;100562.07;1685179;85;20135;-71
2022/05/10 00:52:10;;;;;;;;;;;;;;;7.53;98.33;100554.91;1685156;85;20123;-72
2022/05/10 00:54:49;;;;;;;;;;;;;;;7.49;98.21;100560.22;1685784;85;20114;-71
2022/05/10 00:57:40;;;;;;;;;;;;;;;7.45;98.63;100564.16;1669354;86;20116;-72
2022/05/10 01:00:13;;;;;;;;;;;;;;;7.40;99.49;100565.93;1641029;88;20110;-72
2022/05/10 01:03:15;;;;;;;;;;;;;;;7.35;99.66;100562.80;1640665;86;20663;-71
2022/05/10 01:05:49;;;;;;;;;;;;;;;7.31;100.00;100567.23;1640933;86;20143;-71
2022/05/10 01:08:27;;;;;;;;;;;;;;;7.27;100.00;100569.85;1640562;88;20114;-72
2022/05/10 01:10:57;;;;;;;;;;;;;;;7.22;100.00;100568.91;1640841;88;20386;-72
2022/05/10 01:13:44;;;;;;;;;;;;;;;7.19;100.00;100569.20;1640547;88;20439;-72
2022/05/10 01:16:21;;;;;;;;;;;;;;;7.15;100.00;100570.44;1640581;88;20194;-72
2022/05/10 01:18:48;;;;;;;;;;;;;;;7.10;100.00;100572.20;1640429;88;20395;-72
2022/05/10 01:21:27;;;;;;;;;;;;;;;7.06;100.00;100567.22;1640809;86;20110;-70
2022/05/10 01:24:00;;;;;;;;;;;;;;;7.01;100.00;100569.83;1626145;88;20111;-71
2022/05/10 01:26:37;;;;;;;;;;;;;;;6.95;100.00;100568.17;1557568;92;20115;-71
2022/05/10 01:29:06;;;;;;;;;;;;;;;6.87;100.00;100567.51;1514903;95;20117;-71
2022/05/10 01:31:43;;;;;;;;;;;;;;;6.80;100.00;100568.53;1506405;94;20147;-73
2022/05/10 01:34:12;;;;;;;;;;;;;;;6.73;100.00;100570.52;1533391;93;20168;-71
2022/05/10 01:36:46;;;;;;;;;;;;;;;6.64;100.00;100570.36;1524404;94;20141;-73
2022/05/10 01:39:35;;;;;;;;;;;;;;;6.57;100.00;100564.28;1538320;93;20150;-71
2022/05/10 01:42:08;;;;;;;;;;;;;;;6.52;100.00;100566.54;1557564;92;20160;-72
2022/05/10 01:44:42;;;;;;;;;;;;;;;6.42;100.00;100563.27;1557462;92;20191;-70
2022/05/10 01:47:14;;;;;;;;;;;;;;;6.36;100.00;100559.78;1557429;92;20136;-71
2022/05/10 01:49:43;;;;;;;;;;;;;;;6.29;100.00;100562.63;1556887;92;20144;-71
2022/05/10 01:52:16;;;;;;;;;;;;;;;6.23;100.00;100556.42;1574305;90;20210;-71
2022/05/10 01:55:04;;;;;;;;;;;;;;;6.17;100.00;100559.14;1540822;93;20181;-71
2022/05/10 01:57:32;;;;;;;;;;;;;;;6.11;100.00;100560.15;1541000;92;20173;-71
2022/05/10 02:00:15;;;;;;;;;;;;;;;6.01;100.00;100558.75;1540715;93;20134;-71
2022/05/10 02:02:45;;;;;;;;;;;;;;;5.94;100.00;100558.87;1542851;89;20157;-70
2022/05/10 02:05:15;;;;;;;;;;;;;;;5.84;100.00;100566.82;1610117;88;20418;-72
2022/05/10 02:07:42;;;;;;;;;;;;;;;5.77;100.00;100565.16;1575960;91;20180;-71
2022/05/10 02:10:21;;;;;;;;;;;;;;;5.70;100.00;100562.13;1550399;91;20157;-72
2022/05/10 02:12:51;;;;;;;;;;;;;;;5.66;100.00;100555.29;1550488;93;20147;-71
2022/05/10 02:15:30;;;;;;;;;;;;;;;5.65;100.00;100562.15;1576064;91;20121;-71
2022/05/10 02:18:01;;;;;;;;;;;;;;;5.63;100.00;100565.42;1550707;93;20107;-71
2022/05/10 02:20:47;;;;;;;;;;;;;;;5.65;100.00;100562.15;1550487;93;20108;-71
2022/05/10 02:23:32;;;;;;;;;;;;;;;5.71;100.00;100569.17;1576306;91;20141;-71
2022/05/10 02:26:01;;;;;;;;;;;;;;;5.78;100.00;100563.32;1550664;92;20128;-71
2022/05/10 02:28:40;;;;;;;;;;;;;;;5.86;100.00;100574.25;1550668;93;20465;-72
2022/05/10 02:31:20;;;;;;;;;;;;;;;5.92;100.00;100571.57;1550588;93;20128;-70
2022/05/10 02:33:47;;;;;;;;;;;;;;;5.96;100.00;100569.02;1577412;91;20150;-71
2022/05/10 02:36:14;;;;;;;;;;;;;;;6.02;100.00;100569.36;1538601;93;20141;-71
2022/05/10 02:38:42;;;;;;;;;;;;;;;6.07;100.00;100574.33;1548921;93;20174;-71
2022/05/10 02:41:21;;;;;;;;;;;;;;;6.12;100.00;100569.92;1548890;93;20143;-71
2022/05/10 02:43:51;;;;;;;;;;;;;;;6.17;100.00;100572.58;1564556;92;20127;-71
2022/05/10 02:46:19;;;;;;;;;;;;;;;6.24;100.00;100572.91;1565065;90;20143;-71
2022/05/10 02:48:47;;;;;;;;;;;;;;;6.28;100.00;100577.03;1578742;91;20425;-72
2022/05/10 02:51:14;;;;;;;;;;;;;;;6.34;100.00;100577.00;1589907;90;20379;-72
2022/05/10 02:53:41;;;;;;;;;;;;;;;6.38;100.00;100586.02;1603594;90;20163;-72
2022/05/10 02:56:13;;;;;;;;;;;;;;;6.43;100.00;100582.45;1603678;90;20140;-71
2022/05/10 02:59:02;;;;;;;;;;;;;;;6.49;100.00;100583.75;1578077;91;20150;-71
2022/05/10 03:01:41;;;;;;;;;;;;;;;6.53;100.00;100577.62;1578193;91;20118;-72
2022/05/10 03:04:09;;;;;;;;;;;;;;;6.56;100.00;100583.59;1574963;91;20159;-72
2022/05/10 03:06:38;;;;;;;;;;;;;;;6.59;100.00;100590.05;1577674;91;20114;-71
2022/05/10 03:09:05;;;;;;;;;;;;;;;6.63;100.00;100588.79;1578119;91;20130;-71
2022/05/10 03:11:33;;;;;;;;;;;;;;;6.67;100.00;100579.13;1577813;91;20156;-73
2022/05/10 03:14:00;;;;;;;;;;;;;;;6.71;100.00;100583.24;1577789;90;20125;-72
2022/05/10 03:16:26;;;;;;;;;;;;;;;6.74;100.00;100580.30;1578229;90;20135;-72
2022/05/10 03:18:54;;;;;;;;;;;;;;;6.76;100.00;100597.98;1577981;91;20443;-73
2022/05/10 03:21:21;;;;;;;;;;;;;;;6.79;100.00;100593.69;1578150;91;20145;-72
2022/05/10 03:23:48;;;;;;;;;;;;;;;6.83;100.00;100596.97;1578442;90;20122;-72
2022/05/10 03:26:17;;;;;;;;;;;;;;;6.89;100.00;100591.54;1577801;91;20173;-71
2022/05/10 03:28:44;;;;;;;;;;;;;;;6.94;100.00;100594.21;1575149;91;20150;-71
2022/05/10 03:31:11;;;;;;;;;;;;;;;6.99;100.00;100589.76;1561169;92;20439;-71
2022/05/10 03:33:38;;;;;;;;;;;;;;;7.02;100.00;100594.38;1561542;92;20119;-70
2022/05/10 03:36:06;;;;;;;;;;;;;;;7.08;100.00;100588.94;1561630;91;20140;-72
2022/05/10 03:38:33;;;;;;;;;;;;;;;7.14;100.00;100598.33;1562925;91;20115;-71
2022/05/10 03:41:00;;;;;;;;;;;;;;;7.17;100.00;100603.42;1584743;90;20124;-73
2022/05/10 03:43:27;;;;;;;;;;;;;;;7.20;100.00;100598.62;1604204;89;20134;-71
2022/05/10 03:45:54;;;;;;;;;;;;;;;7.28;100.00;100603.34;1604079;90;20179;-71
2022/05/10 03:48:21;;;;;;;;;;;;;;;7.37;100.00;100604.36;1608299;89;20173;-72
2022/05/10 03:50:47;;;;;;;;;;;;;;;7.43;100.00;100615.06;1609481;89;20126;-71
2022/05/10 03:53:14;;;;;;;;;;;;;;;7.48;100.00;100612.31;1609410;89;20139;-71
2022/05/10 03:55:41;;;;;;;;;;;;;;;7.54;100.00;100614.95;1641334;86;20141;-72
2022/05/10 03:58:08;;;;;;;;;;;;;;;7.62;100.00;100611.09;1664478;86;20435;-71
2022/05/10 04:00:35;;;;;;;;;;;;;;;7.69;100.00;100618.12;1663883;86;20137;-70
2022/05/10 04:03:02;;;;;;;;;;;;;;;7.75;100.00;100610.83;1664126;86;20125;-71
2022/05/10 04:05:28;;;;;;;;;;;;;;;7.82;100.00;100617.35;1663863;86;20156;-70
2022/05/10 04:07:56;;;;;;;;;;;;;;;7.92;100.00;100614.19;1664095;86;20141;-70
2022/05/10 04:10:23;;;;;;;;;;;;;;;8.02;100.00;100617.38;1663997;86;20172;-71
2022/05/10 04:12:50;;;;;;;;;;;;;;;8.11;100.00;100610.66;1664209;86;20149;-71
2022/05/10 04:15:38;;;;;;;;;;;;;;;8.22;100.00;100612.37;1590724;90;20173;-71
2022/05/10 04:18:05;;;;;;;;;;;;;;;8.36;100.00;100613.78;1596521;90;20429;-70
2022/05/10 04:20:34;;;;;;;;;;;;;;;8.48;100.00;100607.76;1596027;90;20452;-70
2022/05/10 04:23:01;;;;;;;;;;;;;;;8.61;100.00;100608.83;1596240;90;20144;-72
2022/05/10 04:25:28;;;;;;;;;;;;;;;8.73;100.00;100612.56;1596003;90;20477;-71
2022/05/10 04:27:55;;;;;;;;;;;;;;;8.86;100.00;100620.83;1596179;90;20125;-72
2022/05/10 04:30:22;;;;;;;;;;;;;;;9.00;100.00;100612.27;1595895;90;20148;-71
2022/05/10 04:32:50;;;;;;;;;;;;;;;9.17;99.84;100615.19;1596562;90;20156;-72
2022/05/10 04:35:17;;;;;;;;;;;;;;;9.37;98.72;100610.08;1611831;89;20442;-71
2022/05/10 04:37:43;;;;;;;;;;;;;;;9.58;97.09;100612.53;1621861;89;20134;-74
2022/05/10 04:42:57;;;;;;;;;;;;;;;10.05;94.47;100619.61;1650427;87;20103;-73
2022/05/10 04:45:23;;;;;;;;;;;;;;;10.29;92.97;100623.06;1643361;87;20119;-72
2022/05/10 04:47:51;;;;;;;;;;;;;;;10.48;91.45;100613.09;1638654;87;20433;-72
2022/05/10 04:50:18;;;;;;;;;;;;;;;10.67;91.78;100612.06;1635644;88;20116;-70
2022/05/10 04:52:44;;;;;;;;;;;;;;;10.82;86.72;100606.44;1635508;88;20108;-73
2022/05/10 04:55:11;;;;;;;;;;;;;;;10.96;79.82;100602.27;1635649;88;20125;-72
2022/05/10 04:57:41;;;;;;;;;;;;;;;10.99;75.83;100598.74;1619301;88;20145;-72
2022/05/10 05:00:11;;;;;;;;;;;;;;;11.00;73.84;100607.73;1635444;88;20100;-73
2022/05/10 05:02:38;;;;;;;;;;;;;;;11.09;75.32;100600.52;1635815;88;20152;-72
2022/05/10 05:05:07;;;;;;;;;;;;;;;11.30;75.10;100610.42;1636044;88;20443;-72
2022/05/10 05:07:33;;;;;;;;;;;;;;;11.45;73.67;100610.66;1635839;88;20124;-72
2022/05/10 05:10:02;;;;;;;;;;;;;;;11.61;75.07;100607.67;1635798;88;20426;-74
2022/05/10 05:12:32;;;;;;;;;;;;;;;11.78;74.24;100610.27;1636146;88;20104;-71
2022/05/10 05:15:01;;;;;;;;;;;;;;;11.96;71.25;100609.33;1655536;86;20137;-74
2022/05/10 05:17:28;;;;;;;;;;;;;;;12.07;69.40;100610.35;1663582;86;20142;-72
2022/05/10 05:19:56;;;;;;;;;;;;;;;12.30;71.58;100604.28;1694805;84;20138;-74
2022/05/10 05:22:22;;;;;;;;;;;;;;;12.57;71.14;100604.97;1702586;84;20107;-69
2022/05/10 05:24:49;;;;;;;;;;;;;;;12.84;69.91;100610.55;1702403;84;20154;-70
2022/05/10 05:27:16;;;;;;;;;;;;;;;13.10;68.81;100611.66;1702092;84;20095;-72
2022/05/10 05:29:43;;;;;;;;;;;;;;;13.34;64.54;100604.00;1702331;84;20127;-74
2022/05/10 05:32:10;;;;;;;;;;;;;;;13.54;62.43;100601.70;1702577;84;20166;-72
2022/05/10 05:34:37;;;;;;;;;;;;;;;13.70;61.36;100606.20;1687766;84;20398;-69
2022/05/10 05:39:49;;;;;;;;;;;;;;;13.98;62.07;100607.08;1661435;86;20399;-70
2022/05/10 05:42:18;;;;;;;;;;;;;;;14.24;59.62;100599.42;1662040;86;20121;-71
2022/05/10 05:44:45;;;;;;;;;;;;;;;14.37;56.92;100603.41;1661911;86;20118;-71
2022/05/10 05:47:12;;;;;;;;;;;;;;;14.35;55.80;100602.22;1675645;84;20102;-70
2022/05/10 05:49:39;;;;;;;;;;;;;;;14.46;56.17;100600.94;1702615;84;20103;-71
2022/05/10 05:52:06;;;;;;;;;;;;;;;14.60;54.97;100601.53;1700261;84;20126;-69
2022/05/10 05:54:33;;;;;;;;;;;;;;;14.71;53.63;100597.52;1702204;84;20142;-70
2022/05/10 05:57:05;;;;;;;;;;;;;;;14.76;51.31;100597.81;1702617;84;20099;-69
2022/05/10 05:59:33;;;;;;;;;;;;;;;14.85;50.51;100595.85;1662838;86;20106;-69
2022/05/10 06:02:00;;;;;;;;;;;;;;;15.04;50.80;100590.91;1662698;86;20106;-69
2022/05/10 06:04:26;;;;;;;;;;;;;;;15.16;49.21;100590.78;1662707;86;20097;-70
2022/05/10 06:06:54;;;;;;;;;;;;;;;15.31;50.14;100589.41;1662814;86;20119;-68
2022/05/10 06:09:22;;;;;;;;;;;;;;;15.57;49.42;100588.91;1662933;86;20180;-68
2022/05/10 06:11:49;;;;;;;;;;;;;;;15.73;48.99;100584.59;1662841;86;20162;-69
2022/05/10 06:14:16;;;;;;;;;;;;;;;15.74;48.55;100584.06;1659649;85;20147;-68
2022/05/10 06:16:43;;;;;;;;;;;;;;;15.85;49.05;100584.14;1650441;87;20302;-71
2022/05/10 06:19:10;;;;;;;;;;;;;;;15.99;49.98;100588.70;1651013;87;20407;-71
2022/05/10 06:21:41;;;;;;;;;;;;;;;16.26;48.88;100587.08;1650805;87;20162;-70
2022/05/10 06:24:10;;;;;;;;;;;;;;;16.48;47.74;100587.93;1649785;87;20139;-72
2022/05/10 06:26:37;;;;;;;;;;;;;;;16.68;46.88;100584.52;1650400;87;20202;-70
2022/05/10 06:29:04;;;;;;;;;;;;;;;16.78;45.51;100582.27;1649997;87;20256;-70
2022/05/10 06:31:31;;;;;;;;;;;;;;;16.86;46.33;100581.33;1641285;86;20111;-69
2022/05/10 06:33:59;;;;;;;;;;;;;;;17.00;45.24;100587.73;1626744;86;20188;-70
2022/05/10 06:36:27;;;;;;;;;;;;;;;17.12;45.87;100580.63;1635657;86;20136;-71
2022/05/10 06:38:54;;;;;;;;;;;;;;;17.33;46.63;100579.70;1647052;86;20114;-72
2022/05/10 06:41:21;;;;;;;;;;;;;;;17.55;45.58;100580.45;1605243;88;20114;-72
2022/05/10 06:43:49;;;;;;;;;;;;;;;17.52;42.21;100579.48;1640292;87;20156;-70
2022/05/10 06:46:21;;;;;;;;;;;;;;;17.51;42.81;100575.08;1625009;88;20140;-69
2022/05/10 06:48:48;;;;;;;;;;;;;;;17.69;43.11;100575.89;1629298;86;20144;-71
2022/05/10 06:51:16;;;;;;;;;;;;;;;17.91;43.16;100577.14;1632016;87;20951;-70
2022/05/10 06:53:44;;;;;;;;;;;;;;;18.10;43.29;100568.66;1650056;87;20111;-70
2022/05/10 06:56:10;;;;;;;;;;;;;;;18.17;41.68;100578.56;1648944;85;20116;-71
2022/05/10 06:58:39;;;;;;;;;;;;;;;18.13;39.03;100575.94;1651396;86;20427;-71
2022/05/10 07:01:10;;;;;;;;;;;;;;;17.92;39.04;100571.46;1677271;85;20207;-71
2022/05/10 07:03:35;;;;;;;;;;;;;;;17.80;39.15;100562.14;1659007;86;20276;-70
2022/05/10 07:06:03;;;;;;;;;;;;;;;17.87;40.10;100562.20;1663929;85;20174;-71
2022/05/10 07:08:30;;;;;;;;;;;;;;;18.12;40.66;100561.92;1666031;84;20517;-70
2022/05/10 07:10:57;;;;;;;;;;;;;;;18.49;41.04;100566.48;1681667;85;20131;-70
2022/05/10 07:13:25;;;;;;;;;;;;;;;18.83;39.80;100560.48;1632696;87;20143;-71
2022/05/10 07:15:52;;;;;;;;;;;;;;;18.97;37.75;100564.05;1674308;85;20445;-72
2022/05/10 07:18:19;;;;;;;;;;;;;;;18.92;36.09;100567.95;1676495;86;20105;-74
2022/05/10 07:20:47;;;;;;;;;;;;;;;18.71;36.37;100562.15;1676250;86;20136;-71
2022/05/10 07:23:13;;;;;;;;;;;;;;;18.77;37.45;100557.21;1693337;84;20119;-71
2022/05/10 07:25:41;;;;;;;;;;;;;;;18.96;36.52;100564.59;1707208;84;20111;-73
2022/05/10 07:28:07;;;;;;;;;;;;;;;19.04;34.88;100551.71;1675448;84;20137;-71
2022/05/10 07:30:35;;;;;;;;;;;;;;;18.73;34.31;100554.56;1681730;84;20141;-70
2022/05/10 07:33:03;;;;;;;;;;;;;;;18.59;35.65;100556.46;1684605;84;20134;-71
2022/05/10 07:38:17;;;;;;;;;;;;;;;19.22;34.61;100548.28;1685725;84;20113;-71
2022/05/10 07:40:47;;;;;;;;;;;;;;;19.48;33.81;100542.70;1689081;84;20114;-70
2022/05/10 07:43:15;;;;;;;;;;;;;;;19.65;33.71;100536.17;1685198;84;21214;-73
2022/05/10 07:45:45;;;;;;;;;;;;;;;19.78;32.36;100547.66;1684383;84;20145;-79
2022/05/10 07:48:11;;;;;;;;;;;;;;;19.64;31.97;100546.02;1683484;84;20133;-68
2022/05/10 07:50:39;;;;;;;;;;;;;;;19.59;32.39;100543.09;1671320;86;20141;-67
2022/05/10 07:53:08;;;;;;;;;;;;;;;19.84;32.81;100537.16;1677042;84;20461;-70
2022/05/10 07:55:35;;;;;;;;;;;;;;;20.05;31.74;100535.14;1685562;84;20487;-69
2022/05/10 07:58:06;;;;;;;;;;;;;;;19.81;32.36;100540.34;1683925;84;20468;-69
2022/05/10 08:00:34;;;;;;;;;;;;;;;19.83;32.42;100538.23;1688089;84;20134;-69
2022/05/10 08:03:09;;;;;;;;;;;;;;;19.67;32.00;100533.21;1681941;84;20391;-69
2022/05/10 08:05:36;;;;;;;;;;;;;;;19.30;31.36;100524.22;1671756;86;20140;-68
2022/05/10 08:08:03;;;;;;;;;;;;;;;18.88;32.30;100533.83;1681216;84;20164;-68
2022/05/10 08:10:32;;;;;;;;;;;;;;;18.83;32.57;100531.72;1683541;84;20161;-68
2022/05/10 08:13:00;;;;;;;;;;;;;;;18.70;31.86;100524.34;1687397;84;20107;-69
2022/05/10 08:15:27;;;;;;;;;;;;;;;18.57;32.60;100532.55;1681613;84;20427;-69
2022/05/10 08:17:58;;;;;;;;;;;;;;;18.83;32.62;100524.87;1679882;84;20406;-70
2022/05/10 08:20:25;;;;;;;;;;;;;;;19.30;32.64;100515.99;1692300;83;20184;-68
2022/05/10 08:22:52;;;;;;;;;;;;;;;19.57;31.91;100520.52;1689999;84;20095;-70
2022/05/10 08:25:19;;;;;;;;;;;;;;;19.52;31.38;100512.94;1690318;84;20113;-69
2022/05/10 08:27:46;;;;;;;;;;;;;;;19.17;30.85;100516.03;1686637;84;20138;-69
2022/05/10 08:30:13;;;;;;;;;;;;;;;18.60;31.83;100526.13;1707205;84;20133;-68
2022/05/10 08:32:42;;;;;;;;;;;;;;;18.27;33.16;100529.41;1707288;84;20438;-69
2022/05/10 08:35:10;;;;;;;;;;;;;;;17.98;33.34;100526.02;1678332;84;20438;-70
2022/05/10 08:37:37;;;;;;;;;;;;;;;17.57;33.27;100521.47;1676554;84;20114;-69
2022/05/10 08:40:07;;;;;;;;;;;;;;;17.35;34.45;100516.14;1687075;84;20117;-70
2022/05/10 08:42:34;;;;;;;;;;;;;;;17.56;34.79;100517.03;1658129;86;20118;-69
2022/05/10 08:45:04;;;;;;;;;;;;;;;17.96;33.96;100515.27;1657574;86;20123;-70
2022/05/10 08:47:31;;;;;;;;;;;;;;;18.37;34.34;100505.20;1612914;87;20137;-70
2022/05/10 08:49:59;;;;;;;;;;;;;;;19.04;33.95;100490.05;1613368;89;20122;-71
2022/05/10 08:52:38;;;;;;;;;;;;;;;19.48;32.98;100483.73;1613147;89;20457;-70
2022/05/10 08:55:06;;;;;;;;;;;;;;;19.63;32.70;100483.97;1616040;87;20427;-69
2022/05/10 08:57:47;;;;;;;;;;;;;;;19.81;31.37;100491.48;1614330;88;20167;-69
2022/05/10 09:00:47;;;;;;;;;;;;;;;19.21;30.92;100489.02;1879403;75;20135;-70
2022/05/10 09:03:30;;;;;;;;;;;;;;;18.39;31.78;100487.48;1857775;77;20118;-68
2022/05/10 09:06:04;;;;;;;;;;;;;;;18.42;32.91;100490.88;1857996;77;20104;-72
2022/05/10 09:08:45;;;;;;;;;;;;;;;18.82;32.14;100483.45;1856914;77;20103;-69
2022/05/10 09:11:13;;;;;;;;;;;;;;;18.97;30.02;100477.73;1861580;77;20088;-68
2022/05/10 09:13:41;;;;;;;;;;;;;;;18.72;29.91;100473.45;1861202;77;20115;-69
2022/05/10 09:16:09;;;;;;;;;;;;;;;18.75;29.76;100468.39;1861496;76;20083;-68
2022/05/10 09:18:49;;;;;;;;;;;;;;;18.79;29.94;100464.16;1861176;77;20396;-69
2022/05/10 09:21:34;;;;;;;;;;;;;;;18.73;29.65;100463.66;1860800;77;20134;-71
2022/05/10 09:24:05;;;;;;;;;;;;;;;18.45;29.61;100468.53;1861648;77;20131;-70
2022/05/10 09:26:35;;;;;;;;;;;;;;;18.01;30.21;100468.98;1861711;77;20103;-69
2022/05/10 09:29:40;;;;;;;;;;;;;;;17.78;31.01;100458.41;1861023;77;20550;-68
2022/05/10 09:35:23;;;;;;;;;;;;;;;18.40;30.63;100454.13;1856567;77;20396;-71
2022/05/10 09:38:03;;;;;;;;;;;;;;;18.87;29.73;100441.72;1851876;77;20104;-70
2022/05/10 09:40:36;;;;;;;;;;;;;;;18.70;29.04;100438.59;1854802;77;20138;-68
2022/05/10 09:43:32;;;;;;;;;;;;;;;18.80;29.91;100430.75;1821990;78;20132;-70
2022/05/10 09:46:11;;;;;;;;;;;;;;;19.03;28.88;100429.44;1797123;80;20129;-69
2022/05/10 09:48:40;;;;;;;;;;;;;;;18.79;28.86;100431.82;1803033;78;20111;-68
2022/05/10 09:51:34;;;;;;;;;;;;;;;18.62;29.39;100431.97;1787328;80;20144;-68
2022/05/10 09:54:03;;;;;;;;;;;;;;;18.61;29.25;100431.14;1773930;80;20149;-73
2022/05/10 09:56:33;;;;;;;;;;;;;;;18.72;29.59;100433.74;1729639;82;20100;-73
2022/05/10 09:59:05;;;;;;;;;;;;;;;18.92;29.21;100428.22;1733203;82;20400;-71
2022/05/10 10:01:38;;;;;;;;;;;;;;;19.17;28.92;100420.09;1741704;82;20104;-73
2022/05/10 10:04:21;;;;;;;;;;;;;;;19.40;28.34;100415.43;1708070;84;20119;-71
2022/05/10 10:07:10;;;;;;;;;;;;;;;19.18;28.12;100425.90;1710985;84;20162;-72
2022/05/10 10:09:38;;;;;;;;;;;;;;;18.90;28.41;100418.02;1701355;83;20163;-73
2022/05/10 10:12:08;;;;;;;;;;;;;;;18.90;28.40;100411.16;1706964;84;20122;-71
2022/05/10 10:14:44;;;;;;;;;;;;;;;18.79;28.74;100414.02;1565225;91;20144;-70
2022/05/10 10:17:20;;;;;;;;;;;;;;;18.57;29.59;100408.82;1571766;91;20162;-70
2022/05/10 10:19:51;;;;;;;;;;;;;;;18.50;29.52;100408.50;1574299;91;20149;-70
2022/05/10 10:22:32;;;;;;;;;;;;;;;18.63;29.58;100406.25;1548740;93;20203;-70
2022/05/10 10:25:05;;;;;;;;;;;;;;;18.96;29.28;100397.44;1551185;93;20397;-70
2022/05/10 10:27:36;;;;;;;;;;;;;;;19.07;28.80;100389.56;1544148;93;20128;-72
2022/05/10 10:30:09;;;;;;;;;;;;;;;18.88;28.41;100409.17;1480333;97;20130;-70
2022/05/10 10:32:39;;;;;;;;;;;;;;;18.39;29.56;100401.79;1480375;97;20123;-71
2022/05/10 10:35:31;;;;;;;;;;;;;;;18.17;31.00;100406.68;1479545;97;20111;-70
2022/05/10 10:38:19;;;;;;;;;;;;;;;18.37;31.78;100406.11;1480205;97;20144;-70
2022/05/10 10:40:58;;;;;;;;;;;;;;;18.93;31.86;100385.53;1424930;100;20162;-70
2022/05/10 10:43:34;;;;;;;;;;;;;;;19.25;31.05;100392.44;1394243;102;20158;-70
2022/05/10 10:46:12;;;;;;;;;;;;;;;19.06;30.69;100386.53;1395022;102;20170;-70
2022/05/10 10:48:54;;;;;;;;;;;;;;;18.69;30.19;100384.33;1334544;106;20140;-73
2022/05/10 10:51:23;;;;;;;;;;;;;;;18.29;31.18;100383.09;1318491;108;20841;-71
2022/05/10 10:53:50;;;;;;;;;;;;;;;18.61;32.35;100377.73;1314868;108;20233;-71
2022/05/10 10:56:49;;;;;;;;;;;;;;;19.16;31.35;100376.77;1310800;109;20174;-71
2022/05/10 10:59:35;;;;;;;;;;;;;;;19.23;29.84;100365.78;1324160;106;20188;-74
2022/05/10 11:02:22;;;;;;;;;;;;;;;19.32;30.75;100380.90;1361918;105;20141;-71
2022/05/10 11:05:02;;;;;;;;;;;;;;;19.43;30.53;100361.53;1382255;104;20190;-71
2022/05/10 11:07:50;;;;;;;;;;;;;;;19.70;31.23;100359.41;1363924;105;20125;-72
2022/05/10 11:10:23;;;;;;;;;;;;;;;19.90;30.55;100354.31;1382135;104;20229;-70
2022/05/10 11:12:53;;;;;;;;;;;;;;;20.14;30.30;100359.48;1337809;107;20137;-69
2022/05/10 11:15:42;;;;;;;;;;;;;;;20.29;29.50;100353.11;1337824;107;20168;-70
2022/05/10 11:18:20;;;;;;;;;;;;;;;20.10;28.64;100350.03;1391648;100;20468;-70
2022/05/10 11:21:00;;;;;;;;;;;;;;;19.39;28.46;100346.59;1461087;98;20139;-73
2022/05/10 11:24:03;;;;;;;;;;;;;;;18.90;28.84;100350.34;1454239;97;20125;-69
2022/05/10 11:26:39;;;;;;;;;;;;;;;18.46;29.65;100355.23;1466697;96;20123;-71
2022/05/10 11:29:19;;;;;;;;;;;;;;;18.70;30.21;100356.43;1439060;98;20159;-69
2022/05/10 11:32:17;;;;;;;;;;;;;;;19.20;29.70;100353.05;1454342;99;20161;-72
2022/05/10 11:35:06;;;;;;;;;;;;;;;19.72;29.78;100342.22;1457290;97;20143;-71
2022/05/10 11:37:39;;;;;;;;;;;;;;;19.84;28.81;100338.23;1447045;99;20137;-73
2022/05/10 11:40:18;;;;;;;;;;;;;;;19.74;29.53;100329.66;1420721;100;20468;-70
2022/05/10 11:42:52;;;;;;;;;;;;;;;19.58;29.17;100323.34;1419837;100;20172;-71
2022/05/10 11:45:28;;;;;;;;;;;;;;;19.57;29.32;100317.02;1443316;97;20137;-75
2022/05/10 11:48:12;;;;;;;;;;;;;;;19.87;29.56;100324.06;1472971;97;20158;-71
2022/05/10 11:54:05;;;;;;;;;;;;;;;19.38;28.15;100305.68;1657731;87;20143;-72
2022/05/10 11:56:34;;;;;;;;;;;;;;;18.80;28.93;100321.17;1657779;87;20154;-69
2022/05/10 11:59:05;;;;;;;;;;;;;;;18.45;29.75;100301.52;1654349;87;20202;-69
2022/05/10 12:01:42;;;;;;;;;;;;;;;18.47;29.74;100305.74;1633580;88;20112;-70
2022/05/10 12:04:31;;;;;;;;;;;;;;;18.55;29.88;100292.33;1634284;88;20121;-68
2022/05/10 12:07:08;;;;;;;;;;;;;;;18.68;30.17;100296.39;1634304;86;20113;-72
2022/05/10 12:09:54;;;;;;;;;;;;;;;18.70;29.64;100296.17;1647138;86;20138;-69
2022/05/10 12:12:36;;;;;;;;;;;;;;;18.73;29.30;100293.84;1641915;86;20152;-73
2022/05/10 12:24:07;;;;;;;;;;;;;;;19.89;29.73;100274.45;1654573;86;20171;-69
2022/05/10 12:26:49;;;;;;;;;;;;;;;20.40;28.82;100282.02;1660456;86;20126;-72
2022/05/10 12:29:42;;;;;;;;;;;;;;;20.50;28.23;100276.80;1636178;86;20175;-68
2022/05/10 12:32:42;;;;;;;;;;;;;;;20.52;27.95;100274.66;1675365;85;20152;-73
2022/05/10 12:35:21;;;;;;;;;;;;;;;20.41;27.88;100273.52;1673840;85;20114;-70
2022/05/10 12:37:57;;;;;;;;;;;;;;;20.00;27.80;100275.60;1724375;80;20104;-69
2022/05/10 12:43:29;;;;;;;;;;;;;;;19.60;28.72;100282.81;1722082;83;20089;-73
2022/05/10 12:46:01;;;;;;;;;;;;;;;19.89;28.77;100268.42;1725520;82;20142;-73
2022/05/10 12:48:52;;;;;;;;;;;;;;;19.95;28.38;100269.41;1746619;82;20107;-73
2022/05/10 12:51:34;;;;;;;;;;;;;;;19.86;28.52;100264.75;1715279;82;20110;-73
2022/05/10 12:54:07;;;;;;;;;;;;;;;19.99;28.38;100262.94;1733584;83;20146;-72
2022/05/10 12:56:44;;;;;;;;;;;;;;;19.87;28.24;100253.27;1731468;83;20468;-72
2022/05/10 12:59:27;;;;;;;;;;;;;;;19.48;27.75;100271.21;1735117;80;20101;-72
2022/05/10 13:01:54;;;;;;;;;;;;;;;19.02;28.80;100258.70;1715953;83;20147;-73
2022/05/10 13:04:22;;;;;;;;;;;;;;;19.19;28.66;100244.45;1708393;83;20132;-74
2022/05/10 13:07:04;;;;;;;;;;;;;;;19.41;28.95;100251.77;1714317;83;20401;-73
2022/05/10 13:09:35;;;;;;;;;;;;;;;19.64;28.64;100239.63;1718231;83;20128;-72
2022/05/10 13:12:07;;;;;;;;;;;;;;;19.90;28.64;100248.67;1716877;83;20145;-71
2022/05/10 13:14:45;;;;;;;;;;;;;;;20.00;27.76;100248.98;1714812;83;20209;-75
2022/05/10 13:17:26;;;;;;;;;;;;;;;19.90;27.65;100244.55;1713058;83;20132;-72
2022/05/10 13:19:54;;;;;;;;;;;;;;;19.69;27.83;100244.45;1601023;87;20153;-73
2022/05/10 13:22:21;;;;;;;;;;;;;;;19.71;28.31;100240.40;1599342;89;20432;-73
2022/05/10 13:24:51;;;;;;;;;;;;;;;19.71;27.71;100232.71;1596218;89;20110;-71
2022/05/10 13:27:29;;;;;;;;;;;;;;;19.69;28.66;100243.08;1596960;89;20135;-74
2022/05/10 13:30:12;;;;;;;;;;;;;;;19.77;27.98;100240.05;1615622;89;20446;-72
2022/05/10 13:32:47;;;;;;;;;;;;;;;19.73;28.16;100242.41;1611423;89;20114;-72